createdAt,value
2023-08-08T00:04:26.607Z,98655.77
2023-08-08T00:07:33.471Z,98656.38
2023-08-08T00:10:38.102Z,98659.90
2023-08-08T00:27:27.671Z,98675.58
2023-08-08T00:30:31.528Z,98677.61
2023-08-08T00:33:35.323Z,98674.08
2023-08-08T00:36:38.198Z,98673.28
2023-08-08T00:39:44.029Z,98672.61
2023-08-08T00:42:48.141Z,98669.45
2023-08-08T00:45:51.157Z,98668.89
2023-08-08T00:48:54.473Z,98672.84
2023-08-08T00:51:57.933Z,98674.36
2023-08-08T00:55:01.520Z,98673.43
2023-08-08T00:58:05.725Z,98673.73
2023-08-08T01:01:08.734Z,98670.70
2023-08-08T01:04:12.220Z,98666.83
2023-08-08T01:07:42.915Z,98668.52
2023-08-08T01:10:45.811Z,98672.52
2023-08-08T01:13:50.109Z,98673.83
2023-08-08T01:16:59.280Z,98678.15
2023-08-08T01:20:06.977Z,98678.39
2023-08-08T01:23:36.305Z,98683.27
2023-08-08T01:26:42.675Z,98680.20
2023-08-08T01:29:45.815Z,98681.19
2023-08-08T01:32:49.198Z,98683.30
2023-08-08T01:35:56.363Z,98682.11
2023-08-08T01:39:05.628Z,98689.23
2023-08-08T01:42:09.367Z,98691.09
2023-08-08T01:45:13.083Z,98693.15
2023-08-08T01:48:15.837Z,98696.84
2023-08-08T01:51:18.757Z,98701.29
2023-08-08T01:54:21.762Z,98699.90
2023-08-08T01:57:24.745Z,98705.92
2023-08-08T02:04:25.635Z,98712.29
2023-08-08T02:07:29.524Z,98712.28
2023-08-08T02:10:33.274Z,98715.79
2023-08-08T02:13:36.225Z,98715.83
2023-08-08T02:16:41.129Z,98722.15
2023-08-08T02:19:44.006Z,98724.26
2023-08-08T02:22:46.838Z,98730.16
2023-08-08T02:25:50.052Z,98731.95
2023-08-08T02:28:53.007Z,98731.90
2023-08-08T02:31:55.861Z,98734.75
2023-08-08T02:34:58.798Z,98736.85
2023-08-08T02:38:01.606Z,98729.00
2023-08-08T02:41:04.407Z,98726.10
2023-08-08T02:44:08.329Z,98733.02
2023-08-08T02:47:11.313Z,98735.70
2023-08-08T02:50:14.597Z,98733.89
2023-08-08T02:53:17.321Z,98739.14
2023-08-08T02:56:22.582Z,98740.77
2023-08-08T02:59:26.179Z,98735.80
2023-08-08T03:02:29.312Z,98731.52
2023-08-08T03:05:33.368Z,98736.47
2023-08-08T03:08:37.603Z,98739.27
2023-08-08T03:11:42.950Z,98738.14
2023-08-08T03:14:47.370Z,98746.55
2023-08-08T03:17:50.606Z,98757.52
2023-08-08T03:20:54.560Z,98763.22
2023-08-08T03:23:59.450Z,98764.23
2023-08-08T03:27:02.371Z,98769.91
2023-08-08T03:30:05.908Z,98782.71
2023-08-08T03:33:12.568Z,98789.56
2023-08-08T03:36:16.263Z,98788.33
2023-08-08T03:39:20.155Z,98789.76
2023-08-08T03:42:23.213Z,98793.79
2023-08-08T03:45:25.933Z,98801.64
2023-08-08T03:48:28.921Z,98801.00
2023-08-08T03:51:34.158Z,98794.44
2023-08-08T03:54:37.243Z,98799.61
2023-08-08T03:57:41.683Z,98809.75
2023-08-08T04:04:27.200Z,98822.05
2023-08-08T04:07:30.277Z,98828.54
2023-08-08T04:10:33.180Z,98837.50
2023-08-08T04:13:38.419Z,98832.70
2023-08-08T04:16:41.356Z,98830.31
2023-08-08T04:19:44.966Z,98844.91
2023-08-08T04:22:47.791Z,98845.20
2023-08-08T04:25:50.569Z,98852.11
2023-08-08T04:28:54.069Z,98856.02
2023-08-08T04:31:56.771Z,98865.55
2023-08-08T04:34:59.981Z,98873.47
2023-08-08T04:38:03.393Z,98879.19
2023-08-08T04:41:06.222Z,98885.66
2023-08-08T04:44:09.019Z,98886.34
2023-08-08T04:47:12.033Z,98894.73
2023-08-08T04:50:15.024Z,98891.33
2023-08-08T04:53:17.978Z,98892.41
2023-08-08T04:56:20.782Z,98886.77
2023-08-08T04:59:23.654Z,98883.42
2023-08-08T05:02:26.567Z,98877.55
2023-08-08T05:05:29.439Z,98887.64
2023-08-08T05:08:32.339Z,98882.46
2023-08-08T05:11:35.269Z,98874.58
2023-08-08T05:14:38.328Z,98878.46
2023-08-08T05:17:41.436Z,98882.69
2023-08-08T05:20:44.338Z,98887.33
2023-08-08T05:37:18.691Z,98889.50
2023-08-08T05:40:21.577Z,98896.89
2023-08-08T05:43:24.490Z,98893.02
2023-08-08T05:46:27.272Z,98889.30
2023-08-08T05:49:30.387Z,98888.15
2023-08-08T05:52:33.468Z,98894.30
2023-08-08T05:55:36.685Z,98897.90
2023-08-08T05:58:39.854Z,98901.70
2023-08-08T06:04:27.257Z,98903.68
2023-08-08T06:07:31.265Z,98908.23
2023-08-08T06:10:34.196Z,98910.67
2023-08-08T06:13:38.088Z,98915.02
2023-08-08T06:16:43.163Z,98913.23
2023-08-08T06:19:46.710Z,98914.71
2023-08-08T06:22:50.862Z,98911.42
2023-08-08T06:25:53.859Z,98911.39
2023-08-08T06:28:56.658Z,98912.39
2023-08-08T06:31:59.821Z,98919.14
2023-08-08T06:35:03.124Z,98920.00
2023-08-08T06:38:06.117Z,98917.60
2023-08-08T06:41:10.000Z,98916.70
2023-08-08T06:44:12.897Z,98911.86
2023-08-08T06:47:15.905Z,98915.02
2023-08-08T06:50:20.929Z,98920.87
2023-08-08T06:53:24.926Z,98929.35
2023-08-08T06:56:28.137Z,98932.91
2023-08-08T06:59:30.910Z,98937.81
2023-08-08T07:02:33.930Z,98934.23
2023-08-08T07:05:37.218Z,98939.50
2023-08-08T07:08:44.110Z,98942.76
2023-08-08T07:11:47.721Z,98952.22
2023-08-08T07:14:50.377Z,98950.70
2023-08-08T07:17:53.786Z,98947.73
2023-08-08T07:20:57.990Z,98946.63
2023-08-08T07:24:01.061Z,98942.52
2023-08-08T07:27:04.553Z,98940.08
2023-08-08T07:30:08.450Z,98947.85
2023-08-08T07:33:11.299Z,98946.28
2023-08-08T07:36:14.060Z,98946.50
2023-08-08T07:39:17.056Z,98944.23
2023-08-08T07:42:21.386Z,98939.19
2023-08-08T07:45:24.189Z,98934.77
2023-08-08T07:48:26.966Z,98931.50
2023-08-08T08:05:01.719Z,98962.09
2023-08-08T08:08:05.536Z,98961.60
2023-08-08T08:11:09.268Z,98963.23
2023-08-08T08:14:13.309Z,98960.39
2023-08-08T08:17:17.825Z,98961.80
2023-08-08T08:20:22.967Z,98951.02
2023-08-08T08:23:26.567Z,98941.39
2023-08-08T08:26:29.590Z,98938.43
2023-08-08T08:29:33.189Z,98947.61
2023-08-08T08:32:38.395Z,98952.20
2023-08-08T08:35:41.354Z,98941.55
2023-08-08T08:38:44.489Z,98947.98
2023-08-08T08:41:51.220Z,98948.74
2023-08-08T08:44:59.244Z,98950.20
2023-08-08T08:48:03.172Z,98948.38
2023-08-08T08:51:06.183Z,98953.54
2023-08-08T08:54:08.969Z,98954.23
2023-08-08T08:57:12.234Z,98954.56
2023-08-08T09:00:17.597Z,98944.44
2023-08-08T09:03:21.697Z,98951.08
2023-08-08T09:06:26.129Z,98957.68
2023-08-08T09:09:33.838Z,98951.33
2023-08-08T09:12:38.421Z,98936.36
2023-08-08T09:15:41.530Z,98933.43
2023-08-08T09:18:44.331Z,98937.34
2023-08-08T09:21:48.514Z,98940.48
2023-08-08T09:24:52.127Z,98935.88
2023-08-08T09:27:55.362Z,98936.20
2023-08-08T09:44:47.219Z,98955.55
2023-08-08T09:47:51.601Z,98962.92
2023-08-08T09:50:54.489Z,98944.58
2023-08-08T09:53:57.632Z,98954.50
2023-08-08T09:57:00.694Z,98953.29
2023-08-08T10:00:06.297Z,98957.04
2023-08-08T10:04:48.016Z,98957.35
2023-08-08T10:07:50.206Z,98952.27
2023-08-08T10:10:53.111Z,98960.59
2023-08-08T10:13:55.648Z,98956.25
2023-08-08T10:16:58.168Z,98958.87
2023-08-08T10:20:09.932Z,98965.38
2023-08-08T10:23:12.321Z,98963.80
2023-08-08T10:26:20.845Z,98954.23
2023-08-08T10:29:26.086Z,98957.69
2023-08-08T10:32:28.381Z,98957.14
2023-08-08T10:35:38.473Z,98961.00
2023-08-08T10:38:49.965Z,98961.10
2023-08-08T10:41:53.309Z,98952.46
2023-08-08T10:45:04.491Z,98948.34
2023-08-08T10:48:09.444Z,98952.14
2023-08-08T10:51:15.072Z,98960.59
2023-08-08T10:54:24.183Z,98957.43
2023-08-08T10:57:28.372Z,98958.27
2023-08-08T11:00:36.319Z,98964.55
2023-08-08T11:03:42.512Z,98962.41
2023-08-08T11:06:46.052Z,98956.95
2023-08-08T11:09:50.161Z,98966.06
2023-08-08T11:13:03.927Z,98965.39
2023-08-08T11:16:05.817Z,98971.98
2023-08-08T11:19:08.807Z,98962.73
2023-08-08T11:22:12.562Z,98963.65
2023-08-08T11:25:16.114Z,98966.07
2023-08-08T11:28:18.285Z,98964.39
2023-08-08T11:31:24.089Z,98969.41
2023-08-08T11:34:27.087Z,98969.80
2023-08-08T11:37:29.477Z,98967.02
2023-08-08T11:40:32.456Z,98966.52
2023-08-08T11:43:35.378Z,98974.93
2023-08-08T11:46:47.872Z,98971.15
2023-08-08T11:49:50.073Z,98967.98
2023-08-08T11:52:54.067Z,98975.39
2023-08-08T11:55:57.332Z,98974.52
2023-08-08T11:59:00.760Z,98977.48
2023-08-08T12:02:03.121Z,98979.89
2023-08-08T12:05:12.469Z,98975.41
2023-08-08T12:08:21.430Z,98982.79
2023-08-08T12:11:26.220Z,98983.30
2023-08-08T12:14:29.714Z,98993.59
2023-08-08T12:17:32.174Z,99001.95
2023-08-08T12:20:34.264Z,98999.92
2023-08-08T12:23:37.659Z,99003.29
2023-08-08T12:26:39.689Z,99008.14
2023-08-08T12:29:41.628Z,98998.59
2023-08-08T12:32:43.694Z,98999.74
2023-08-08T12:35:45.778Z,98994.70
2023-08-08T12:38:47.756Z,98989.20
2023-08-08T12:41:49.916Z,98995.05
2023-08-08T12:44:52.381Z,98985.65
2023-08-08T12:47:54.355Z,98989.07
2023-08-08T12:50:56.626Z,98983.64
2023-08-08T12:53:59.019Z,98975.69
2023-08-08T12:57:01.180Z,98969.64
2023-08-08T13:00:05.177Z,98968.13
2023-08-08T13:03:08.706Z,98966.41
2023-08-08T13:06:14.417Z,98967.33
2023-08-08T13:09:16.572Z,98969.84
2023-08-08T13:12:18.759Z,98970.41
2023-08-08T13:15:21.278Z,98966.55
2023-08-08T13:18:24.003Z,98962.48
2023-08-08T13:21:26.291Z,98966.54
2023-08-08T13:24:28.744Z,98969.27
2023-08-08T13:27:30.822Z,98970.40
2023-08-08T13:30:33.988Z,98970.10
2023-08-08T13:33:36.553Z,98973.45
2023-08-08T13:36:38.823Z,98969.55
2023-08-08T13:39:41.096Z,98962.80
2023-08-08T13:42:43.367Z,98966.55
2023-08-08T13:45:45.399Z,98976.77
2023-08-08T13:48:47.588Z,98976.31
2023-08-08T13:51:50.993Z,98968.66
2023-08-08T13:54:53.485Z,98961.20
2023-08-08T13:57:59.122Z,98955.38
2023-08-08T14:04:46.685Z,98966.58
2023-08-08T14:07:48.864Z,98964.27
2023-08-08T14:10:51.099Z,98961.04
2023-08-08T14:13:53.141Z,98954.13
2023-08-08T14:16:56.441Z,98953.63
2023-08-08T14:19:58.771Z,98960.91
2023-08-08T14:23:01.137Z,98959.55
2023-08-08T14:26:03.650Z,98963.25
2023-08-08T14:29:06.349Z,98963.06
2023-08-08T14:32:08.528Z,98964.80
2023-08-08T14:35:11.578Z,98974.21
2023-08-08T14:38:13.574Z,98978.17
2023-08-08T14:41:15.721Z,98980.30
2023-08-08T14:44:18.759Z,98984.25
2023-08-08T14:47:21.096Z,98984.80
2023-08-08T14:50:23.440Z,98982.80
2023-08-08T14:53:25.426Z,98978.54
2023-08-08T14:56:27.886Z,98978.56
2023-08-08T14:59:30.046Z,98984.71
2023-08-08T15:02:32.307Z,98993.42
2023-08-08T15:05:34.358Z,98998.67
2023-08-08T15:08:36.688Z,98999.85
2023-08-08T15:11:38.493Z,99005.73
2023-08-08T15:14:40.330Z,99002.46
2023-08-08T15:17:42.538Z,99010.92
2023-08-08T15:20:45.147Z,99008.20
2023-08-08T15:23:48.813Z,99001.71
2023-08-08T15:26:51.223Z,98998.91
2023-08-08T15:29:53.407Z,99002.09
2023-08-08T15:32:55.876Z,98995.55
2023-08-08T15:35:58.351Z,98996.21
2023-08-08T15:39:00.829Z,99004.52
2023-08-08T15:42:03.368Z,99010.84
2023-08-08T15:45:06.400Z,99006.47
2023-08-08T15:48:08.771Z,99004.35
2023-08-08T15:51:11.451Z,99007.92
2023-08-08T15:54:13.589Z,99007.79
2023-08-08T15:57:15.589Z,99006.01
2023-08-08T16:00:17.459Z,99001.70
2023-08-08T16:03:19.681Z,98999.95
2023-08-08T16:06:21.533Z,99004.86
2023-08-08T16:09:23.678Z,99006.95
2023-08-08T16:12:25.533Z,99007.78
2023-08-08T16:15:27.491Z,99007.80
2023-08-08T16:18:30.301Z,99015.23
2023-08-08T16:21:32.666Z,99023.52
2023-08-08T16:24:34.646Z,99031.42
2023-08-08T16:27:37.018Z,99029.81
2023-08-08T16:30:39.436Z,99032.99
2023-08-08T16:33:43.710Z,99038.52
2023-08-08T16:36:45.762Z,99038.51
2023-08-08T16:39:48.725Z,99042.42
2023-08-08T16:42:51.013Z,99042.89
2023-08-08T16:45:53.061Z,99045.22
2023-08-08T16:48:55.308Z,99044.73
2023-08-08T16:52:00.742Z,99052.56
2023-08-08T16:55:04.029Z,99054.66
2023-08-08T16:58:06.410Z,99058.35
2023-08-08T17:01:09.288Z,99063.23
2023-08-08T17:04:12.657Z,99062.96
2023-08-08T17:07:14.711Z,99064.66
2023-08-08T17:10:17.228Z,99058.92
2023-08-08T17:13:19.346Z,99055.17
2023-08-08T17:16:21.399Z,99056.05
2023-08-08T17:19:23.626Z,99052.48
2023-08-08T17:22:25.719Z,99048.05
2023-08-08T17:25:27.937Z,99047.02
2023-08-08T17:28:30.445Z,99048.94
2023-08-08T17:31:32.510Z,99046.23
2023-08-08T17:34:34.510Z,99046.90
2023-08-08T17:37:36.638Z,99050.05
2023-08-08T17:40:38.914Z,99055.31
2023-08-08T17:43:41.063Z,99068.98
2023-08-08T17:46:43.234Z,99071.01
2023-08-08T17:49:45.327Z,99067.31
2023-08-08T17:52:48.500Z,99069.92
2023-08-08T17:55:51.356Z,99073.38
2023-08-08T17:58:54.704Z,99076.22
2023-08-08T18:04:47.683Z,99094.52
2023-08-08T18:07:50.112Z,99111.48
2023-08-08T18:10:52.757Z,99114.96
2023-08-08T18:13:55.468Z,99110.45
2023-08-08T18:16:57.484Z,99102.11
2023-08-08T18:19:59.234Z,99105.02
2023-08-08T18:23:02.571Z,99110.41
2023-08-08T18:26:07.862Z,99122.52
2023-08-08T18:29:10.464Z,99129.01
2023-08-08T18:32:12.652Z,99134.63
2023-08-08T18:35:15.367Z,99132.83
2023-08-08T18:38:17.397Z,99131.77
2023-08-08T18:41:20.339Z,99129.63
2023-08-08T18:44:22.905Z,99129.78
2023-08-08T18:47:25.159Z,99132.55
2023-08-08T18:50:27.446Z,99123.91
2023-08-08T18:53:29.520Z,99124.66
2023-08-08T18:56:32.668Z,99130.09
2023-08-08T18:59:34.630Z,99113.12
2023-08-08T19:02:36.662Z,99104.97
2023-08-08T19:05:39.537Z,99105.46
2023-08-08T19:08:43.090Z,99120.02
2023-08-08T19:11:45.780Z,99122.59
2023-08-08T19:14:47.904Z,99113.05
2023-08-08T19:17:56.022Z,99108.92
2023-08-08T19:20:58.962Z,99096.86
2023-08-08T19:24:01.447Z,99098.17
2023-08-08T19:27:04.205Z,99108.64
2023-08-08T19:30:09.554Z,99115.60
2023-08-08T19:33:13.280Z,99124.30
2023-08-08T19:36:15.862Z,99129.11
2023-08-08T19:39:18.532Z,99131.20
2023-08-08T19:42:20.516Z,99130.98
2023-08-08T19:45:22.224Z,99126.45
2023-08-08T19:48:24.114Z,99120.86
2023-08-08T19:51:28.575Z,99123.13
2023-08-08T19:54:30.506Z,99122.30
2023-08-08T19:57:32.328Z,99127.38
2023-08-08T20:00:34.422Z,99125.26
2023-08-08T20:03:36.872Z,99135.26
2023-08-08T20:10:24.622Z,99133.16
2023-08-08T20:13:27.797Z,99132.45
2023-08-08T20:16:31.798Z,99134.15
2023-08-08T20:19:35.519Z,99136.95
2023-08-08T20:22:38.589Z,99136.98
2023-08-08T20:25:41.496Z,99133.29
2023-08-08T20:28:44.270Z,99137.08
2023-08-08T20:31:47.526Z,99135.73
2023-08-08T20:34:51.830Z,99129.39
2023-08-08T20:37:54.655Z,99132.29
2023-08-08T20:40:57.524Z,99133.34
2023-08-08T20:44:00.612Z,99126.32
2023-08-08T20:47:04.306Z,99122.17
2023-08-08T20:50:08.238Z,99117.78
2023-08-08T20:53:12.761Z,99111.91
2023-08-08T20:56:16.924Z,99113.75
2023-08-08T20:59:19.692Z,99119.43
2023-08-08T21:02:22.970Z,99141.39
2023-08-08T21:05:26.657Z,99156.98
2023-08-08T21:08:33.970Z,99165.96
2023-08-08T21:11:39.042Z,99174.36
2023-08-08T21:14:41.888Z,99173.98
2023-08-08T21:17:47.410Z,99168.21
2023-08-08T21:20:50.873Z,99164.88
2023-08-08T21:23:53.630Z,99162.48
2023-08-08T21:26:56.629Z,99166.52
2023-08-08T21:29:59.629Z,99173.39
2023-08-08T21:33:02.755Z,99178.90
2023-08-08T21:36:06.256Z,99180.15
2023-08-08T21:39:09.422Z,99179.52
2023-08-08T21:42:12.633Z,99176.07
2023-08-08T21:45:15.642Z,99170.41
2023-08-08T21:48:18.500Z,99172.50
2023-08-08T21:51:21.395Z,99172.42
2023-08-08T21:54:24.343Z,99172.30
2023-08-08T21:57:27.281Z,99171.79
2023-08-08T22:04:27.277Z,99154.96
2023-08-08T22:07:30.615Z,99154.73
2023-08-08T22:10:35.082Z,99158.27
2023-08-08T22:13:37.807Z,99164.64
2023-08-08T22:16:40.689Z,99164.80
2023-08-08T22:19:43.759Z,99165.63
2023-08-08T22:22:46.697Z,99164.73
2023-08-08T22:25:50.542Z,99168.45
2023-08-08T22:28:53.257Z,99167.25
2023-08-08T22:31:56.260Z,99162.37
2023-08-08T22:34:58.916Z,99160.10
2023-08-08T22:38:01.874Z,99158.07
2023-08-08T22:41:04.639Z,99161.55
2023-08-08T22:44:07.826Z,99164.76
2023-08-08T22:47:10.470Z,99159.73
2023-08-08T22:50:13.972Z,99161.34
2023-08-08T22:53:16.668Z,99160.04
2023-08-08T22:56:19.748Z,99162.27
2023-08-08T22:59:23.662Z,99160.85
2023-08-08T23:02:26.898Z,99155.86
2023-08-08T23:05:29.642Z,99157.48
2023-08-08T23:08:32.656Z,99151.30
2023-08-08T23:11:35.417Z,99154.02
2023-08-08T23:14:38.322Z,99153.38
2023-08-08T23:17:41.139Z,99157.44
2023-08-08T23:20:44.940Z,99162.09
2023-08-08T23:23:48.195Z,99168.04
2023-08-08T23:26:51.727Z,99170.78
2023-08-08T23:29:54.700Z,99171.80
2023-08-08T23:32:57.698Z,99177.84
2023-08-08T23:36:00.576Z,99178.52
2023-08-08T23:39:05.800Z,99180.13
2023-08-08T23:42:08.536Z,99184.08
2023-08-08T23:45:13.653Z,99184.78
2023-08-08T23:48:16.508Z,99189.38
2023-08-08T23:51:19.333Z,99184.85
2023-08-08T23:54:22.290Z,99188.11
2023-08-08T23:57:25.193Z,99190.89
